createdAt,value
2022-10-22T00:00:39.613Z,1.20
2022-10-22T00:03:06.775Z,2.47
2022-10-22T00:05:33.970Z,1.55
2022-10-22T00:08:01.055Z,1.30
2022-10-22T00:10:28.138Z,1.40
2022-10-22T00:12:55.232Z,1.52
2022-10-22T00:15:22.405Z,1.48
2022-10-22T00:17:49.815Z,1.40
2022-10-22T00:20:17.270Z,1.52
2022-10-22T00:22:44.384Z,1.35
2022-10-22T00:25:13.710Z,1.45
2022-10-22T00:27:40.994Z,1.80
2022-10-22T00:30:08.694Z,1.48
2022-10-22T00:32:35.759Z,1.63
2022-10-22T00:35:02.970Z,1.38
2022-10-22T00:37:30.413Z,1.67
2022-10-22T00:39:57.602Z,1.35
2022-10-22T00:42:26.244Z,1.90
2022-10-22T00:45:06.106Z,1.50
2022-10-22T00:47:36.015Z,1.40
2022-10-22T00:52:37.033Z,1.45
2022-10-22T00:55:04.630Z,2.00
2022-10-22T00:57:31.694Z,1.70
2022-10-22T00:59:59.053Z,1.52
2022-10-22T01:02:26.322Z,1.58
2022-10-22T01:04:53.414Z,1.45
2022-10-22T01:07:23.166Z,1.40
2022-10-22T01:10:19.408Z,1.30
2022-10-22T01:12:57.514Z,1.50
2022-10-22T01:15:46.538Z,1.60
2022-10-22T01:18:14.031Z,1.48
2022-10-22T01:21:04.623Z,1.70
2022-10-22T01:23:50.151Z,1.73
2022-10-22T01:26:17.497Z,1.30
2022-10-22T01:29:17.059Z,1.52
2022-10-22T01:31:47.041Z,1.40
2022-10-22T01:34:18.831Z,1.60
2022-10-22T01:36:47.536Z,1.50
2022-10-22T01:39:16.021Z,1.20
2022-10-22T01:41:46.180Z,1.50
2022-10-22T01:44:25.276Z,1.42
2022-10-22T01:46:54.576Z,1.15
2022-10-22T01:49:28.362Z,1.30
2022-10-22T01:51:55.390Z,2.78
2022-10-22T01:54:42.715Z,1.40
2022-10-22T01:59:36.777Z,1.38
2022-10-22T02:02:03.804Z,1.40
2022-10-22T02:04:34.839Z,1.35
2022-10-22T02:07:03.364Z,1.33
2022-10-22T02:09:31.271Z,1.48
2022-10-22T02:12:00.177Z,1.35
2022-10-22T02:16:54.428Z,1.48
2022-10-22T02:19:47.860Z,1.58
2022-10-22T02:22:15.110Z,1.25
2022-10-22T02:24:42.230Z,1.58
2022-10-22T02:27:26.858Z,1.45
2022-10-22T02:30:06.848Z,1.20
2022-10-22T02:32:39.760Z,1.48
2022-10-22T02:35:08.049Z,1.38
2022-10-22T02:37:35.318Z,1.40
2022-10-22T02:40:02.628Z,1.42
2022-10-22T02:42:30.589Z,1.63
2022-10-22T02:44:57.741Z,1.58
2022-10-22T02:47:24.856Z,1.48
2022-10-22T02:49:51.995Z,1.55
2022-10-22T02:52:19.072Z,1.30
2022-10-22T02:54:46.263Z,1.40
2022-10-22T02:57:13.348Z,1.27
2022-10-22T02:59:40.451Z,1.55
2022-10-22T03:02:07.526Z,1.52
2022-10-22T03:04:34.715Z,1.55
2022-10-22T03:07:01.772Z,1.27
2022-10-22T03:09:28.888Z,1.15
2022-10-22T03:11:56.286Z,1.58
2022-10-22T03:14:23.349Z,1.67
2022-10-22T03:16:50.473Z,1.40
2022-10-22T03:19:17.567Z,1.40
2022-10-22T03:21:56.399Z,1.75
2022-10-22T03:24:26.303Z,1.15
2022-10-22T03:26:53.490Z,1.50
2022-10-22T03:29:22.480Z,1.52
2022-10-22T03:31:49.542Z,1.38
2022-10-22T03:34:18.142Z,1.40
2022-10-22T03:36:45.453Z,1.27
2022-10-22T03:39:17.439Z,2.38
2022-10-22T03:41:44.638Z,1.33
2022-10-22T03:44:12.339Z,1.45
2022-10-22T03:46:39.429Z,2.15
2022-10-22T03:49:06.491Z,1.50
2022-10-22T03:51:34.152Z,1.05
2022-10-22T03:54:01.238Z,1.50
2022-10-22T03:56:28.438Z,1.65
2022-10-22T03:58:59.606Z,1.67
2022-10-22T04:01:27.338Z,2.00
2022-10-22T04:03:54.555Z,1.83
2022-10-22T04:06:21.705Z,1.33
2022-10-22T04:08:49.212Z,1.73
2022-10-22T04:11:16.839Z,1.80
2022-10-22T04:13:44.211Z,1.25
2022-10-22T04:16:12.778Z,1.40
2022-10-22T04:18:40.531Z,1.33
2022-10-22T04:21:08.631Z,1.35
2022-10-22T04:23:35.871Z,1.67
2022-10-22T04:26:04.318Z,1.38
2022-10-22T04:28:31.394Z,1.70
2022-10-22T04:30:58.485Z,1.40
2022-10-22T04:33:25.661Z,1.63
2022-10-22T04:35:52.711Z,1.58
2022-10-22T04:38:19.861Z,1.23
2022-10-22T04:40:46.965Z,1.75
2022-10-22T04:43:14.142Z,1.98
2022-10-22T04:45:41.186Z,1.60
2022-10-22T04:48:08.308Z,1.67
2022-10-22T04:50:36.251Z,1.55
2022-10-22T04:53:03.474Z,1.35
2022-10-22T04:58:02.514Z,2.38
2022-10-22T05:00:29.555Z,1.38
2022-10-22T05:02:56.630Z,1.48
2022-10-22T05:05:23.771Z,1.48
2022-10-22T05:07:51.851Z,1.60
2022-10-22T05:10:18.944Z,1.50
2022-10-22T05:12:46.078Z,1.80
2022-10-22T05:15:13.187Z,1.63
2022-10-22T05:17:40.553Z,2.28
2022-10-22T05:20:10.363Z,2.47
2022-10-22T05:22:37.475Z,3.30
2022-10-22T05:25:04.667Z,1.63
2022-10-22T05:27:31.730Z,1.88
2022-10-22T05:29:58.831Z,1.80
2022-10-22T05:32:25.938Z,1.77
2022-10-22T05:34:53.011Z,1.98
2022-10-22T05:37:20.104Z,1.75
2022-10-22T05:39:47.368Z,1.58
2022-10-22T05:42:14.458Z,1.25
2022-10-22T05:44:41.722Z,1.30
2022-10-22T05:47:10.131Z,1.42
2022-10-22T05:49:37.279Z,1.58
2022-10-22T05:52:04.374Z,1.75
2022-10-22T05:54:31.477Z,1.33
2022-10-22T05:56:58.527Z,1.63
2022-10-22T05:59:25.608Z,1.90
2022-10-22T06:01:52.886Z,1.48
2022-10-22T06:04:19.972Z,1.33
2022-10-22T06:06:48.443Z,1.40
2022-10-22T06:09:27.788Z,1.45
2022-10-22T06:11:55.710Z,1.20
2022-10-22T06:14:23.035Z,1.27
2022-10-22T06:16:50.359Z,1.30
2022-10-22T06:19:19.167Z,1.50
2022-10-22T06:21:46.800Z,1.48
2022-10-22T06:24:13.964Z,1.73
2022-10-22T06:26:41.580Z,1.42
2022-10-22T06:29:09.040Z,1.55
2022-10-22T06:31:39.201Z,1.60
2022-10-22T06:34:07.263Z,1.27
2022-10-22T06:36:34.966Z,1.35
2022-10-22T06:39:02.179Z,1.40
2022-10-22T06:41:29.776Z,1.25
2022-10-22T06:43:57.592Z,1.60
2022-10-22T06:46:25.720Z,1.50
2022-10-22T06:48:59.997Z,1.10
2022-10-22T06:51:28.130Z,1.45
2022-10-22T06:53:55.871Z,1.38
2022-10-22T06:56:23.877Z,1.20
2022-10-22T06:58:52.139Z,1.10
2022-10-22T07:01:24.852Z,1.10
2022-10-22T07:03:52.449Z,1.55
2022-10-22T07:06:19.884Z,1.25
2022-10-22T07:08:47.128Z,1.60
2022-10-22T07:11:14.232Z,1.52
2022-10-22T07:13:41.612Z,1.38
2022-10-22T07:16:09.315Z,1.20
2022-10-22T07:18:37.469Z,1.50
2022-10-22T07:21:05.330Z,1.20
2022-10-22T07:23:32.713Z,1.25
2022-10-22T07:26:02.370Z,1.02
2022-10-22T07:28:29.749Z,1.00
2022-10-22T07:30:56.816Z,1.27
2022-10-22T07:33:23.874Z,1.20
2022-10-22T07:35:51.068Z,1.40
2022-10-22T07:38:18.163Z,1.23
2022-10-22T07:40:45.259Z,1.30
2022-10-22T07:43:12.401Z,1.23
2022-10-22T07:45:40.909Z,1.23
2022-10-22T07:48:08.056Z,1.00
2022-10-22T07:50:35.256Z,1.52
2022-10-22T07:53:02.382Z,1.38
2022-10-22T07:55:31.827Z,1.10
2022-10-22T07:57:59.087Z,1.08
2022-10-22T08:00:26.300Z,1.02
2022-10-22T08:02:53.492Z,1.45
2022-10-22T08:05:20.656Z,1.20
2022-10-22T08:07:47.824Z,1.20
2022-10-22T08:10:14.911Z,1.25
2022-10-22T08:12:42.341Z,1.30
2022-10-22T08:15:09.807Z,0.85
2022-10-22T08:17:37.101Z,1.15
2022-10-22T08:20:04.420Z,1.00
2022-10-22T08:22:31.561Z,1.17
2022-10-22T08:25:00.354Z,0.80
2022-10-22T08:27:27.580Z,1.00
2022-10-22T08:29:54.731Z,1.20
2022-10-22T08:32:22.366Z,1.08
2022-10-22T08:34:49.858Z,1.20
2022-10-22T08:37:17.762Z,1.00
2022-10-22T08:39:45.290Z,1.02
2022-10-22T08:42:31.219Z,1.33
2022-10-22T08:45:04.424Z,1.02
2022-10-22T08:47:48.548Z,1.52
2022-10-22T08:50:18.431Z,1.60
2022-10-22T08:52:46.970Z,1.17
2022-10-22T08:55:14.985Z,1.48
2022-10-22T08:58:03.863Z,1.08
2022-10-22T09:00:46.184Z,1.00
2022-10-22T09:03:27.093Z,1.40
2022-10-22T09:06:02.489Z,1.13
2022-10-22T09:08:30.214Z,1.30
2022-10-22T09:11:07.327Z,1.33
2022-10-22T09:13:34.540Z,1.80
2022-10-22T09:16:02.935Z,1.40
2022-10-22T09:18:30.125Z,1.35
2022-10-22T09:20:58.972Z,0.88
2022-10-22T09:23:26.101Z,1.08
2022-10-22T09:25:53.398Z,0.90
2022-10-22T09:28:20.473Z,1.20
2022-10-22T09:30:50.041Z,1.08
2022-10-22T09:33:23.935Z,0.80
2022-10-22T09:35:56.084Z,1.95
2022-10-22T09:38:28.341Z,1.42
2022-10-22T09:40:56.464Z,1.20
2022-10-22T09:43:23.914Z,1.00
2022-10-22T09:45:57.171Z,1.10
2022-10-22T09:48:30.558Z,1.38
2022-10-22T09:51:00.864Z,0.95
2022-10-22T09:53:30.285Z,1.02
2022-10-22T09:56:01.751Z,1.08
2022-10-22T09:58:29.066Z,1.13
2022-10-22T10:01:00.174Z,1.10
2022-10-22T10:03:28.645Z,1.30
2022-10-22T10:06:01.461Z,1.33
2022-10-22T10:08:32.120Z,1.10
2022-10-22T10:11:17.314Z,1.38
2022-10-22T10:13:44.439Z,1.08
2022-10-22T10:16:14.546Z,1.10
2022-10-22T10:18:51.605Z,0.90
2022-10-22T10:21:27.517Z,0.85
2022-10-22T10:24:03.620Z,1.50
2022-10-22T10:26:38.159Z,1.55
2022-10-22T10:29:08.409Z,1.20
2022-10-22T10:31:43.742Z,1.13
2022-10-22T10:34:13.586Z,1.50
2022-10-22T10:36:45.714Z,1.30
2022-10-22T10:39:24.179Z,1.10
2022-10-22T10:41:51.394Z,1.23
2022-10-22T10:44:18.503Z,1.02
2022-10-22T10:46:54.869Z,1.40
2022-10-22T10:49:30.269Z,2.35
2022-10-22T10:52:22.719Z,0.93
2022-10-22T10:54:55.701Z,1.40
2022-10-22T10:57:43.520Z,1.90
2022-10-22T11:00:12.434Z,1.00
2022-10-22T11:02:58.422Z,1.25
2022-10-22T11:05:32.990Z,1.20
2022-10-22T11:08:02.062Z,1.45
2022-10-22T11:10:39.963Z,1.55
2022-10-22T11:13:13.282Z,1.77
2022-10-22T11:15:40.792Z,1.40
2022-10-22T11:18:10.899Z,1.40
2022-10-22T11:20:43.156Z,1.38
2022-10-22T11:23:19.407Z,1.35
2022-10-22T11:25:48.368Z,1.20
2022-10-22T11:30:50.471Z,1.63
2022-10-22T11:33:19.756Z,1.42
2022-10-22T11:35:47.879Z,1.42
2022-10-22T11:38:16.786Z,1.42
2022-10-22T11:43:12.303Z,1.40
2022-10-22T11:45:40.741Z,2.33
2022-10-22T11:48:15.557Z,1.45
2022-10-22T11:50:49.022Z,1.45
2022-10-22T11:53:16.088Z,1.58
2022-10-22T11:55:51.690Z,1.35
2022-10-22T11:58:30.552Z,1.73
2022-10-22T12:01:03.798Z,1.40
2022-10-22T12:03:33.638Z,1.63
2022-10-22T12:06:12.720Z,1.50
2022-10-22T12:08:54.922Z,1.55
2022-10-22T12:11:22.053Z,1.73
2022-10-22T12:13:52.646Z,1.33
2022-10-22T12:16:32.147Z,1.60
2022-10-22T12:19:10.758Z,1.45
2022-10-22T12:21:42.203Z,1.00
2022-10-22T12:24:12.891Z,1.30
2022-10-22T12:26:39.986Z,1.40
2022-10-22T12:29:11.962Z,1.10
2022-10-22T12:31:40.339Z,1.40
2022-10-22T12:34:07.478Z,1.30
2022-10-22T12:36:36.084Z,1.23
2022-10-22T12:39:04.399Z,1.33
2022-10-22T12:41:35.338Z,1.30
2022-10-22T12:44:04.187Z,1.45
2022-10-22T12:49:02.443Z,1.20
2022-10-22T12:51:29.622Z,1.35
2022-10-22T12:53:57.713Z,1.40
2022-10-22T12:56:27.046Z,1.38
2022-10-22T12:58:58.258Z,1.65
2022-10-22T13:01:27.435Z,1.30
2022-10-22T13:04:13.175Z,1.55
2022-10-22T13:06:44.387Z,1.58
2022-10-22T13:09:23.900Z,1.52
2022-10-22T13:11:59.140Z,1.30
2022-10-22T13:14:26.346Z,1.40
2022-10-22T13:17:11.938Z,1.45
2022-10-22T13:19:43.939Z,1.90
2022-10-22T13:22:31.080Z,1.55
2022-10-22T13:25:00.034Z,1.33
2022-10-22T13:27:28.583Z,1.25
2022-10-22T13:29:56.832Z,1.25
2022-10-22T13:32:31.717Z,1.20
2022-10-22T13:35:00.187Z,1.58
2022-10-22T13:37:28.563Z,1.50
2022-10-22T13:39:55.701Z,1.33
2022-10-22T13:42:22.883Z,1.67
2022-10-22T13:44:49.997Z,1.15
2022-10-22T13:47:27.937Z,1.50
2022-10-22T13:49:58.255Z,1.77
2022-10-22T13:52:30.631Z,1.50
2022-10-22T13:54:57.695Z,1.20
2022-10-22T13:57:24.981Z,1.30
2022-10-22T13:59:52.334Z,1.15
2022-10-22T14:02:20.071Z,1.23
2022-10-22T14:04:47.302Z,1.65
2022-10-22T14:07:17.604Z,1.45
2022-10-22T14:09:44.718Z,1.48
2022-10-22T14:12:16.289Z,1.40
2022-10-22T14:14:44.372Z,1.40
2022-10-22T14:17:16.688Z,1.50
2022-10-22T14:19:45.824Z,1.30
2022-10-22T14:22:22.315Z,1.38
2022-10-22T14:24:50.128Z,1.30
2022-10-22T14:27:17.224Z,1.30
2022-10-22T14:29:44.368Z,1.33
2022-10-22T14:32:16.080Z,1.20
2022-10-22T14:34:43.232Z,1.30
2022-10-22T14:37:15.710Z,1.40
2022-10-22T14:39:43.297Z,1.55
2022-10-22T14:42:11.953Z,1.20
2022-10-22T14:44:39.396Z,1.25
2022-10-22T14:47:06.872Z,1.20
2022-10-22T14:49:34.287Z,1.38
2022-10-22T14:52:01.410Z,1.52
2022-10-22T14:54:28.635Z,1.40
2022-10-22T14:56:55.725Z,1.20
2022-10-22T14:59:22.978Z,1.52
2022-10-22T15:01:50.094Z,1.27
2022-10-22T15:04:17.201Z,1.25
2022-10-22T15:06:45.446Z,1.27
2022-10-22T15:09:12.613Z,1.30
2022-10-22T15:11:39.770Z,1.33
2022-10-22T15:14:07.720Z,1.08
2022-10-22T15:16:34.818Z,1.27
2022-10-22T15:19:02.009Z,1.52
2022-10-22T15:21:29.197Z,1.20
2022-10-22T15:23:56.344Z,1.30
2022-10-22T15:26:23.622Z,1.30
2022-10-22T15:28:50.763Z,1.40
2022-10-22T15:31:37.954Z,1.35
2022-10-22T15:34:05.029Z,1.45
2022-10-22T15:36:32.095Z,1.33
2022-10-22T15:38:59.196Z,1.67
2022-10-22T15:41:26.306Z,1.27
2022-10-22T15:43:53.725Z,1.27
2022-10-22T15:46:21.955Z,1.52
2022-10-22T15:48:49.250Z,1.20
2022-10-22T15:51:17.646Z,1.25
2022-10-22T15:53:44.991Z,1.38
2022-10-22T15:56:12.205Z,1.52
2022-10-22T15:58:39.335Z,1.17
2022-10-22T16:01:11.606Z,1.50
2022-10-22T16:03:38.842Z,1.10
2022-10-22T16:06:06.280Z,0.98
2022-10-22T16:08:33.996Z,1.33
2022-10-22T16:11:01.263Z,1.40
2022-10-22T16:13:28.462Z,1.13
2022-10-22T16:15:55.733Z,1.25
2022-10-22T16:18:23.676Z,1.50
2022-10-22T16:20:50.800Z,1.20
2022-10-22T16:23:19.085Z,1.90
2022-10-22T16:25:46.651Z,3.58
2022-10-22T16:28:13.957Z,3.08
2022-10-22T16:30:41.649Z,3.00
2022-10-22T16:33:09.483Z,2.95
2022-10-22T16:35:40.317Z,2.88
2022-10-22T16:38:07.480Z,2.72
2022-10-22T16:40:34.640Z,2.83
2022-10-22T16:43:01.707Z,2.38
2022-10-22T16:45:28.922Z,2.30
2022-10-22T16:47:56.057Z,2.60
2022-10-22T16:50:23.220Z,2.80
2022-10-22T16:52:50.732Z,2.78
2022-10-22T16:55:17.918Z,2.88
2022-10-22T16:57:50.089Z,3.10
2022-10-22T17:00:17.245Z,3.30
2022-10-22T17:02:44.486Z,2.65
2022-10-22T17:05:11.744Z,3.35
2022-10-22T17:07:38.831Z,2.40
2022-10-22T17:10:08.960Z,2.75
2022-10-22T17:12:36.637Z,3.22
2022-10-22T17:15:04.666Z,2.55
2022-10-22T17:17:32.235Z,2.92
2022-10-22T17:19:59.462Z,2.47
2022-10-22T17:22:26.870Z,2.20
2022-10-22T17:25:12.195Z,2.28
2022-10-22T17:27:39.640Z,2.40
2022-10-22T17:30:07.413Z,2.28
2022-10-22T17:32:38.868Z,2.20
2022-10-22T17:35:06.748Z,2.15
2022-10-22T17:37:34.662Z,2.15
2022-10-22T17:40:02.032Z,2.85
2022-10-22T17:42:29.798Z,2.72
2022-10-22T17:44:57.921Z,2.67
2022-10-22T17:47:25.061Z,2.70
2022-10-22T17:49:52.290Z,2.85
2022-10-22T17:52:19.427Z,2.38
2022-10-22T17:54:48.686Z,2.67
2022-10-22T17:57:15.923Z,2.90
2022-10-22T17:59:43.042Z,2.47
2022-10-22T18:02:15.209Z,2.50
2022-10-22T18:04:42.326Z,2.50
2022-10-22T18:07:09.477Z,2.20
2022-10-22T18:09:36.946Z,2.80
2022-10-22T18:12:04.128Z,2.78
2022-10-22T18:14:31.200Z,2.42
2022-10-22T18:16:58.263Z,2.30
2022-10-22T18:19:25.338Z,2.45
2022-10-22T18:21:52.530Z,2.70
2022-10-22T18:24:19.778Z,2.22
2022-10-22T18:26:46.931Z,2.70
2022-10-22T18:29:18.477Z,2.50
2022-10-22T18:31:45.742Z,2.70
2022-10-22T18:34:13.153Z,2.70
2022-10-22T18:36:41.072Z,2.92
2022-10-22T18:39:08.392Z,2.20
2022-10-22T18:41:36.016Z,2.80
2022-10-22T18:44:04.834Z,2.90
2022-10-22T18:46:34.653Z,2.58
2022-10-22T18:49:02.283Z,2.90
2022-10-22T18:51:31.539Z,2.40
2022-10-22T18:54:05.441Z,2.25
2022-10-22T18:56:45.233Z,2.45
2022-10-22T18:59:17.668Z,2.38
2022-10-22T19:01:44.808Z,2.63
2022-10-22T19:04:12.874Z,2.80
2022-10-22T19:06:44.318Z,1.85
2022-10-22T19:09:13.725Z,2.20
2022-10-22T19:11:41.143Z,2.28
2022-10-22T19:14:08.209Z,2.20
2022-10-22T19:16:37.491Z,2.33
2022-10-22T19:19:06.122Z,2.60
2022-10-22T19:21:33.264Z,2.45
2022-10-22T19:24:01.183Z,2.60
2022-10-22T19:26:29.200Z,2.50
2022-10-22T19:28:56.827Z,2.25
2022-10-22T19:31:24.714Z,2.60
2022-10-22T19:33:54.470Z,2.58
2022-10-22T19:36:24.363Z,2.88
2022-10-22T19:38:51.595Z,2.45
2022-10-22T19:41:19.788Z,2.60
2022-10-22T19:43:49.539Z,2.20
2022-10-22T19:46:17.320Z,2.13
2022-10-22T19:51:17.918Z,2.40
2022-10-22T19:53:45.298Z,2.38
2022-10-22T19:56:12.943Z,2.30
2022-10-22T19:58:40.041Z,2.53
2022-10-22T20:01:11.066Z,2.40
2022-10-22T20:03:38.920Z,2.40
2022-10-22T20:06:07.030Z,2.38
2022-10-22T20:08:36.018Z,2.60
2022-10-22T20:11:03.335Z,2.38
2022-10-22T20:13:30.492Z,2.30
2022-10-22T20:15:57.718Z,2.67
2022-10-22T20:18:24.845Z,2.85
2022-10-22T20:20:52.038Z,2.20
2022-10-22T20:23:19.098Z,2.72
2022-10-22T20:25:47.344Z,2.42
2022-10-22T20:28:14.868Z,2.17
2022-10-22T20:30:42.806Z,2.17
2022-10-22T20:33:10.057Z,2.10
2022-10-22T20:35:37.759Z,2.25
2022-10-22T20:38:05.571Z,2.33
2022-10-22T20:40:32.973Z,2.60
2022-10-22T20:43:00.734Z,3.20
2022-10-22T20:45:28.308Z,2.25
2022-10-22T20:48:02.024Z,2.45
2022-10-22T20:50:33.714Z,2.45
2022-10-22T20:53:00.811Z,2.47
2022-10-22T20:55:28.199Z,2.30
2022-10-22T20:57:55.748Z,2.22
2022-10-22T21:00:22.883Z,2.05
2022-10-22T21:02:50.068Z,2.10
2022-10-22T21:05:17.344Z,2.00
2022-10-22T21:07:44.646Z,2.20
2022-10-22T21:10:11.887Z,2.40
2022-10-22T21:12:42.007Z,2.15
2022-10-22T21:15:12.483Z,2.67
2022-10-22T21:17:40.672Z,2.10
2022-10-22T21:20:08.037Z,2.40
2022-10-22T21:22:35.231Z,2.53
2022-10-22T21:25:02.499Z,2.20
2022-10-22T21:27:29.546Z,2.35
2022-10-22T21:29:56.754Z,2.67
2022-10-22T21:32:25.103Z,2.38
2022-10-22T21:34:52.189Z,2.20
2022-10-22T21:37:19.347Z,2.05
2022-10-22T21:39:46.472Z,2.88
2022-10-22T21:42:15.807Z,2.45
2022-10-22T21:44:42.899Z,2.83
2022-10-22T21:47:10.018Z,2.60
2022-10-22T21:49:37.081Z,2.92
2022-10-22T21:52:06.867Z,2.88
2022-10-22T21:54:37.231Z,2.35
2022-10-22T21:57:04.831Z,2.40
2022-10-22T21:59:32.335Z,2.85
2022-10-22T22:02:04.778Z,2.35
2022-10-22T22:04:33.053Z,3.03
2022-10-22T22:07:00.132Z,2.85
2022-10-22T22:09:27.301Z,2.38
2022-10-22T22:11:54.363Z,2.60
2022-10-22T22:14:21.444Z,2.33
2022-10-22T22:16:48.579Z,2.65
2022-10-22T22:19:15.754Z,2.55
2022-10-22T22:21:43.020Z,2.88
2022-10-22T22:24:11.661Z,3.03
2022-10-22T22:26:38.868Z,2.78
2022-10-22T22:29:06.023Z,2.65
2022-10-22T22:31:34.132Z,2.60
2022-10-22T22:34:01.277Z,2.40
2022-10-22T22:36:28.896Z,2.75
2022-10-22T22:38:59.018Z,2.60
2022-10-22T22:41:26.129Z,2.60
2022-10-22T22:43:53.166Z,2.67
2022-10-22T22:46:20.382Z,2.83
2022-10-22T22:48:50.707Z,2.28
2022-10-22T22:51:18.208Z,2.63
2022-10-22T22:53:45.486Z,2.47
2022-10-22T22:56:23.359Z,2.42
2022-10-22T22:58:50.798Z,2.53
2022-10-22T23:01:20.310Z,2.65
2022-10-22T23:03:49.200Z,2.80
2022-10-22T23:06:16.847Z,2.80
2022-10-22T23:08:44.099Z,3.25
2022-10-22T23:11:14.855Z,3.17
2022-10-22T23:13:42.724Z,2.55
2022-10-22T23:16:11.158Z,2.70
2022-10-22T23:18:38.236Z,2.92
2022-10-22T23:21:06.292Z,2.90
2022-10-22T23:23:34.624Z,2.80
2022-10-22T23:26:02.360Z,2.95
2022-10-22T23:28:29.482Z,3.22
2022-10-22T23:30:56.710Z,2.90
2022-10-22T23:33:23.823Z,2.85
2022-10-22T23:35:50.950Z,2.72
2022-10-22T23:38:19.062Z,2.50
2022-10-22T23:40:46.191Z,2.90
2022-10-22T23:43:13.279Z,2.53
2022-10-22T23:45:40.346Z,2.58
2022-10-22T23:48:07.438Z,2.60
2022-10-22T23:50:36.599Z,2.78
2022-10-22T23:53:03.782Z,3.03
2022-10-22T23:55:30.866Z,3.03
2022-10-22T23:57:58.029Z,2.38
